Terminal Aerodrome Forecast
Issued by NWS

Home | Current Version | Previous Version | Text Only | Print | Product List | Glossary On
Versions: 1 2 3 4 5 6 7 8 9 10 11 12 13 14 15 16 17 18 19 20 21 22 23 24
000
FTUS41 KBUF 302300
TAFJHW
TAF
KJHW 302322Z 3100/3124 31011KT 4SM -SN FEW011 BKN016 OVC023
     FM310500 30005KT P6SM BKN150
     FM310600 29004KT P6SM BKN110
     FM311200 VRB03KT P6SM BKN070
     FM311500 25004KT P6SM BKN060
     FM311700 25008KT P6SM BKN060
     FM312200 25010KT P6SM BKN140
      AMD LTD TO CLD VIS AND WIND=

USA.gov is the U.S. government's official web portal to all federal, state and local government web resources and services.